CheckWX is a tool to help pilots better visualize weather data.  It is not intended as a substitute for an official pre-flight weather briefing.

05:35:45 UTC

KQEL METAR
Gapyong
Gapyong, South Korea
Current

16 mins ago

KQEL 240520Z AUTO 19004G12KT / // CLR 13/M05 A3020 RMK A02 TSNO
Observed
Feb-24 @ 05:20 UTC
Wind
  • 190° at 4 KTS
  • Gusting to 12 KTS
Visibility
Cloud Levels
  • Clear skies
Temperature
13°C / 55°F
Dewpoint
-5°C / 23°F
Humidity
28%
Altimeter
30.2" Hg
Pressure
1022.72 hPa
Previous

26 mins ago

KQEL 240510Z AUTO 17004G12KT / // CLR 13/M05 A3020 RMK A02 TSNO
Observed
Feb-24 @ 05:10 UTC
Wind
  • 170° at 4 KTS
  • Gusting to 12 KTS
Visibility
Cloud Levels
  • Clear skies
Temperature
13°C / 55°F
Dewpoint
-5°C / 23°F
Humidity
28%
Altimeter
30.2" Hg
Pressure
1022.72 hPa
Previous

36 mins ago

KQEL 240500Z AUTO 18004KT / // CLR 13/M05 A3021 RMK A02 TSNO
Observed
Feb-24 @ 05:00 UTC
Wind
  • 180° at 4 KTS
Visibility
Cloud Levels
  • Clear skies
Temperature
13°C / 55°F
Dewpoint
-5°C / 23°F
Humidity
28%
Altimeter
30.21" Hg
Pressure
1023.02 hPa